Time;durP1;ratioP1;P1;durP2;ratioP2;P2;SDS_P1;SDS_P2;PMS_P1;PMS_P2;Temp;Humidity;BMP_temperature;BMP_pressure;BME280_temperature;BME280_humidity;BME280_pressure;Samples;Min_cycle;Max_cycle;Signal;HPM_P1;HPM_P2
2023/08/27 00:00:59;;;;;;;17.88;10.82;;;13.00;99.90;;;;;;5034077;28;20508;-66
2023/08/27 00:03:25;;;;;;;14.93;10.38;;;13.00;99.90;;;;;;5058057;28;20060;-65
2023/08/27 00:05:51;;;;;;;12.32;9.00;;;13.00;99.90;;;;;;5047410;28;20516;-66
2023/08/27 00:08:16;;;;;;;14.15;9.68;;;12.90;99.90;;;;;;5046446;28;20045;-65
2023/08/27 00:10:42;;;;;;;15.43;10.20;;;12.90;99.90;;;;;;5046136;28;20495;-66
2023/08/27 00:13:08;;;;;;;12.35;8.95;;;12.90;99.90;;;;;;5046657;28;20374;-66
2023/08/27 00:15:33;;;;;;;13.25;10.05;;;12.90;99.90;;;;;;5046126;28;20122;-66
2023/08/27 00:17:59;;;;;;;15.15;10.73;;;12.90;99.90;;;;;;5032096;28;20236;-66
2023/08/27 00:20:24;;;;;;;16.23;12.85;;;12.90;99.90;;;;;;5053170;28;20259;-66
2023/08/27 00:22:50;;;;;;;18.85;12.45;;;12.90;99.90;;;;;;5047404;28;20084;-65
2023/08/27 00:25:16;;;;;;;13.80;10.23;;;12.90;99.90;;;;;;5058693;28;20559;-66
2023/08/27 00:27:42;;;;;;;16.98;10.88;;;12.90;99.90;;;;;;5066296;28;20080;-66
2023/08/27 00:30:08;;;;;;;15.98;11.43;;;12.90;99.90;;;;;;5066304;28;20075;-67
2023/08/27 00:32:34;;;;;;;13.93;10.70;;;12.90;99.90;;;;;;5064787;28;20136;-66
2023/08/27 00:35:00;;;;;;;15.10;10.73;;;12.90;99.90;;;;;;5051474;28;20560;-66
2023/08/27 00:37:26;;;;;;;13.90;11.20;;;12.90;99.90;;;;;;5027303;28;20128;-67
2023/08/27 00:39:52;;;;;;;16.50;10.85;;;12.90;99.90;;;;;;5025723;28;20138;-66
2023/08/27 00:42:18;;;;;;;17.25;13.10;;;12.90;99.90;;;;;;5032232;28;20040;-66
2023/08/27 00:44:43;;;;;;;18.83;12.38;;;12.90;99.90;;;;;;5065535;28;20545;-67
2023/08/27 00:47:11;;;;;;;16.02;12.27;;;13.00;99.90;;;;;;5048746;28;20484;-66
2023/08/27 00:49:39;;;;;;;16.52;11.32;;;13.00;99.90;;;;;;5038767;28;20025;-66
2023/08/27 00:52:05;;;;;;;14.35;11.48;;;13.00;99.90;;;;;;5046858;28;20063;-66
2023/08/27 00:54:32;;;;;;;18.88;12.13;;;12.90;99.90;;;;;;5028708;28;20049;-66
2023/08/27 00:56:58;;;;;;;14.90;10.25;;;12.90;99.90;;;;;;5045189;28;20048;-66
2023/08/27 00:59:23;;;;;;;15.65;10.93;;;12.90;99.90;;;;;;5060598;28;20547;-67
2023/08/27 01:01:49;;;;;;;15.25;10.48;;;12.90;99.90;;;;;;5064933;28;20151;-66
2023/08/27 01:04:15;;;;;;;12.70;9.98;;;12.80;99.90;;;;;;5047402;28;20128;-66
2023/08/27 01:06:41;;;;;;;19.50;11.68;;;12.80;99.90;;;;;;5046756;28;20125;-66
2023/08/27 01:09:15;;;;;;;20.63;11.57;;;12.80;99.90;;;;;;5045469;28;20049;-66
2023/08/27 01:11:47;;;;;;;15.18;11.15;;;12.70;99.90;;;;;;5045241;28;20520;-66
2023/08/27 01:14:16;;;;;;;14.18;10.68;;;12.70;99.90;;;;;;5045006;28;20134;-66
2023/08/27 01:16:43;;;;;;;18.02;12.45;;;12.70;99.90;;;;;;5028566;28;20037;-66
2023/08/27 01:19:14;;;;;;;20.48;13.15;;;12.70;99.90;;;;;;5045016;28;20037;-66
2023/08/27 01:21:43;;;;;;;16.13;11.95;;;12.70;99.90;;;;;;5065863;28;20075;-67
2023/08/27 01:24:10;;;;;;;19.27;12.40;;;12.70;99.90;;;;;;5064899;28;20043;-66
2023/08/27 01:26:54;;;;;;;14.07;11.00;;;12.70;99.90;;;;;;5066071;28;20410;-68
2023/08/27 01:29:57;;;;;;;18.40;13.13;;;12.70;99.90;;;;;;5054762;28;20519;-66
2023/08/27 01:32:38;;;;;;;20.90;12.82;;;12.70;99.90;;;;;;5044830;28;20495;-67
2023/08/27 01:35:04;;;;;;;19.70;12.75;;;12.70;99.90;;;;;;5031680;28;20230;-67
2023/08/27 01:37:30;;;;;;;20.50;12.82;;;12.60;99.90;;;;;;5024889;28;20038;-67
2023/08/27 01:40:01;;;;;;;23.98;15.05;;;12.60;99.90;;;;;;5025425;28;20504;-67
2023/08/27 01:42:27;;;;;;;24.13;16.27;;;12.60;99.90;;;;;;5064139;28;20047;-67
2023/08/27 01:44:55;;;;;;;17.95;12.77;;;12.60;99.90;;;;;;5064488;28;20404;-67
2023/08/27 01:47:21;;;;;;;18.65;14.07;;;12.70;99.90;;;;;;5063290;28;20136;-68
2023/08/27 01:49:48;;;;;;;23.63;14.73;;;12.70;99.90;;;;;;5045362;28;20124;-67
2023/08/27 01:52:14;;;;;;;20.20;13.35;;;12.70;99.90;;;;;;5044767;28;20095;-67
2023/08/27 01:54:40;;;;;;;21.90;14.25;;;12.70;99.90;;;;;;5060716;28;20048;-67
2023/08/27 01:57:06;;;;;;;20.02;14.25;;;12.70;99.90;;;;;;5064069;28;20132;-67
2023/08/27 01:59:32;;;;;;;21.60;15.50;;;12.70;99.90;;;;;;5063955;28;20044;-67
2023/08/27 02:01:58;;;;;;;20.15;14.02;;;12.70;99.90;;;;;;5062314;28;20530;-67
2023/08/27 02:04:24;;;;;;;19.27;14.43;;;12.70;99.90;;;;;;5048589;28;20037;-67
2023/08/27 02:06:49;;;;;;;21.60;14.68;;;12.70;99.90;;;;;;5039309;28;20394;-67
2023/08/27 02:09:15;;;;;;;21.08;14.93;;;12.70;99.90;;;;;;5027685;28;20044;-67
2023/08/27 02:11:41;;;;;;;24.15;17.00;;;12.70;99.90;;;;;;5045233;28;20096;-67
2023/08/27 02:14:07;;;;;;;22.45;14.52;;;12.70;99.90;;;;;;5047133;28;20048;-67
2023/08/27 02:16:34;;;;;;;22.52;15.57;;;12.80;99.90;;;;;;5063844;28;20336;-67
2023/08/27 02:19:00;;;;;;;24.63;15.80;;;12.80;99.90;;;;;;5051568;28;20186;-67
2023/08/27 02:21:26;;;;;;;24.40;15.90;;;12.80;99.90;;;;;;5044755;28;20127;-67
2023/08/27 02:23:51;;;;;;;27.67;16.42;;;12.80;99.90;;;;;;5043799;28;20045;-67
2023/08/27 02:26:17;;;;;;;23.83;15.63;;;12.80;99.90;;;;;;5057345;28;20037;-67
2023/08/27 02:28:43;;;;;;;24.15;16.77;;;12.80;99.90;;;;;;5063856;28;20530;-66
2023/08/27 02:31:08;;;;;;;22.55;15.35;;;12.80;99.90;;;;;;5065212;28;20062;-66
2023/08/27 02:33:35;;;;;;;24.55;15.65;;;12.70;99.90;;;;;;5063031;28;20443;-67
2023/08/27 02:36:00;;;;;;;20.83;14.30;;;12.70;99.90;;;;;;5032200;28;20127;-67
2023/08/27 02:38:26;;;;;;;24.17;16.05;;;12.70;99.90;;;;;;5025095;28;20126;-67
2023/08/27 02:40:51;;;;;;;23.92;16.25;;;12.70;99.90;;;;;;5044261;28;20170;-66
2023/08/27 02:43:17;;;;;;;18.15;13.82;;;12.70;99.90;;;;;;5043720;28;20036;-66
2023/08/27 02:45:43;;;;;;;24.30;15.50;;;12.70;99.90;;;;;;5055856;28;20040;-67
2023/08/27 02:48:08;;;;;;;19.45;13.50;;;12.60;99.90;;;;;;5044863;28;20404;-67
2023/08/27 02:50:34;;;;;;;22.38;14.60;;;12.60;99.90;;;;;;5049852;28;20416;-67
2023/08/27 02:52:59;;;;;;;18.77;13.98;;;12.60;99.90;;;;;;5043671;28;20053;-67
2023/08/27 02:55:29;;;;;;;20.30;14.82;;;12.60;99.90;;;;;;5043264;28;20052;-67
2023/08/27 02:57:55;;;;;;;18.63;13.88;;;12.70;99.90;;;;;;5043879;28;20543;-67
2023/08/27 03:00:21;;;;;;;19.88;14.43;;;12.70;99.90;;;;;;5047831;28;20416;-67
2023/08/27 03:02:46;;;;;;;19.67;14.70;;;12.70;99.90;;;;;;5062813;28;20083;-67
2023/08/27 03:05:12;;;;;;;22.15;14.80;;;12.70;99.90;;;;;;5044683;28;20397;-67
2023/08/27 03:07:38;;;;;;;23.38;15.88;;;12.60;99.90;;;;;;5044704;28;20029;-66
2023/08/27 03:10:03;;;;;;;20.60;14.68;;;12.60;99.90;;;;;;5044622;28;20082;-67
2023/08/27 03:12:29;;;;;;;19.80;13.48;;;12.60;99.90;;;;;;5022117;28;20107;-66
2023/08/27 03:14:54;;;;;;;25.13;15.93;;;12.60;99.90;;;;;;5059089;28;20497;-67
2023/08/27 03:17:20;;;;;;;24.10;15.20;;;12.50;99.90;;;;;;5064789;28;20131;-66
2023/08/27 03:19:46;;;;;;;24.65;15.18;;;12.50;99.90;;;;;;5049506;28;20083;-66
2023/08/27 03:22:11;;;;;;;18.98;14.63;;;12.40;99.90;;;;;;5064480;28;20476;-67
2023/08/27 03:24:38;;;;;;;24.08;16.77;;;12.40;99.90;;;;;;5064559;28;20044;-67
2023/08/27 03:27:05;;;;;;;26.73;16.83;;;12.40;99.90;;;;;;5063249;28;20051;-67
2023/08/27 03:29:31;;;;;;;25.63;15.98;;;12.40;99.90;;;;;;5064301;28;20032;-66
2023/08/27 03:31:57;;;;;;;22.95;14.80;;;12.40;99.90;;;;;;5063395;28;20049;-66
2023/08/27 03:34:22;;;;;;;20.30;13.70;;;12.40;99.90;;;;;;5057459;28;20036;-67
2023/08/27 03:36:48;;;;;;;21.92;15.18;;;12.30;99.90;;;;;;5024608;28;20120;-67
2023/08/27 03:39:13;;;;;;;18.08;14.02;;;12.30;99.90;;;;;;5044298;28;20087;-67
2023/08/27 03:41:39;;;;;;;19.30;14.75;;;12.30;99.90;;;;;;5042790;28;20072;-67
2023/08/27 03:44:05;;;;;;;24.58;15.70;;;12.30;99.90;;;;;;5055714;28;20141;-67
2023/08/27 03:46:30;;;;;;;33.60;18.20;;;12.30;99.90;;;;;;5066112;28;20051;-67
2023/08/27 03:49:00;;;;;;;29.23;17.55;;;12.30;99.90;;;;;;5056031;28;20029;-67
2023/08/27 03:51:28;;;;;;;20.67;15.13;;;12.40;99.90;;;;;;5052216;28;20049;-67
2023/08/27 03:53:55;;;;;;;27.35;17.30;;;12.40;99.90;;;;;;5048026;28;20633;-67
2023/08/27 03:56:21;;;;;;;22.98;15.05;;;12.40;99.90;;;;;;5046116;28;20291;-67
2023/08/27 03:58:46;;;;;;;21.48;14.77;;;12.40;99.90;;;;;;5046456;28;20602;-67
2023/08/27 04:01:12;;;;;;;26.10;16.85;;;12.40;99.90;;;;;;5047027;28;20107;-67
2023/08/27 04:03:38;;;;;;;24.33;16.52;;;12.40;99.90;;;;;;5063124;28;20102;-66
2023/08/27 04:06:08;;;;;;;21.75;15.98;;;12.40;99.90;;;;;;5050219;28;20037;-67
2023/08/27 04:08:34;;;;;;;26.38;16.58;;;12.40;99.90;;;;;;5046388;28;20072;-67
2023/08/27 04:11:01;;;;;;;24.17;15.80;;;12.40;99.90;;;;;;5056450;28;20102;-66
2023/08/27 04:13:27;;;;;;;28.10;17.55;;;12.40;99.90;;;;;;5066557;28;20045;-66
2023/08/27 04:16:10;;;;;;;26.25;16.73;;;12.40;99.90;;;;;;5066207;28;20051;-65
2023/08/27 04:18:36;;;;;;;21.10;14.85;;;12.40;99.90;;;;;;5053133;28;20048;-65
2023/08/27 04:21:03;;;;;;;24.98;17.13;;;12.40;99.90;;;;;;5061109;28;20421;-66
2023/08/27 04:23:28;;;;;;;26.90;17.13;;;12.40;99.90;;;;;;5067589;28;20123;-66
2023/08/27 04:25:54;;;;;;;26.67;16.25;;;12.40;99.90;;;;;;5065755;28;20127;-66
2023/08/27 04:28:20;;;;;;;22.92;15.85;;;12.40;99.90;;;;;;5064855;28;20555;-66
2023/08/27 04:30:49;;;;;;;22.88;16.45;;;12.40;99.90;;;;;;5049189;28;20032;-66
2023/08/27 04:33:18;;;;;;;23.85;16.70;;;12.40;99.90;;;;;;5062314;28;20369;-65
2023/08/27 04:35:48;;;;;;;24.65;17.42;;;12.40;99.90;;;;;;5029068;28;20044;-67
2023/08/27 04:38:13;;;;;;;24.80;17.83;;;12.40;99.90;;;;;;5029128;28;20048;-65
2023/08/27 04:40:39;;;;;;;24.10;16.70;;;12.40;99.90;;;;;;5045593;28;20043;-65
2023/08/27 04:43:05;;;;;;;24.55;17.23;;;12.40;99.90;;;;;;5029138;28;20045;-67
2023/08/27 04:45:30;;;;;;;28.10;18.65;;;12.40;99.90;;;;;;5057573;28;20467;-67
2023/08/27 04:47:56;;;;;;;25.65;16.02;;;12.40;99.90;;;;;;5064447;28;20483;-66
2023/08/27 04:50:21;;;;;;;24.98;17.50;;;12.40;99.90;;;;;;5053935;28;20059;-66
2023/08/27 04:52:47;;;;;;;25.35;16.48;;;12.50;99.90;;;;;;5045612;28;20047;-66
2023/08/27 04:55:13;;;;;;;24.05;16.65;;;12.50;99.90;;;;;;5045410;28;20045;-66
2023/08/27 04:57:38;;;;;;;21.75;16.00;;;12.60;99.90;;;;;;5044872;28;20049;-66
2023/08/27 05:00:16;;;;;;;18.77;14.88;;;12.70;99.90;;;;;;5065697;28;20051;-66
2023/08/27 05:02:42;;;;;;;18.95;14.10;;;12.80;99.90;;;;;;5047413;28;20495;-66
2023/08/27 05:05:08;;;;;;;18.70;13.45;;;12.90;99.90;;;;;;5052235;28;20044;-67
2023/08/27 05:07:33;;;;;;;19.17;14.35;;;12.90;99.90;;;;;;5064994;28;20459;-66
2023/08/27 05:09:59;;;;;;;19.65;14.30;;;12.90;99.90;;;;;;5066564;28;20404;-67
2023/08/27 05:12:24;;;;;;;19.70;14.13;;;12.90;99.90;;;;;;5049040;28;20041;-66
2023/08/27 05:14:50;;;;;;;20.08;13.55;;;12.90;99.90;;;;;;5049453;28;20048;-66
2023/08/27 05:17:16;;;;;;;19.30;13.55;;;12.90;99.90;;;;;;5048264;28;20040;-66
2023/08/27 05:19:41;;;;;;;18.17;13.48;;;12.80;99.90;;;;;;5063513;28;20537;-67
2023/08/27 05:22:07;;;;;;;18.63;13.73;;;12.80;99.90;;;;;;5064835;28;20373;-66
2023/08/27 05:24:33;;;;;;;21.83;14.27;;;12.80;99.90;;;;;;5045959;28;20033;-66
2023/08/27 05:26:58;;;;;;;23.60;14.65;;;12.80;99.90;;;;;;5061659;28;20059;-66
2023/08/27 05:29:24;;;;;;;23.27;15.05;;;12.70;99.90;;;;;;5065184;28;20047;-66
2023/08/27 05:31:49;;;;;;;16.17;12.45;;;12.70;99.90;;;;;;5064658;28;20036;-66
2023/08/27 05:34:15;;;;;;;18.17;13.38;;;12.70;99.90;;;;;;5054058;28;20040;-67
2023/08/27 05:36:40;;;;;;;21.55;14.30;;;12.70;99.90;;;;;;5040831;28;20045;-66
2023/08/27 05:39:06;;;;;;;16.88;13.15;;;12.70;99.90;;;;;;5041254;28;20052;-66
2023/08/27 05:41:32;;;;;;;16.60;12.52;;;12.80;99.90;;;;;;5024658;28;20048;-66
2023/08/27 05:43:58;;;;;;;20.08;12.65;;;12.80;99.90;;;;;;5009728;28;20128;-66
2023/08/27 05:46:23;;;;;;;17.60;12.68;;;12.90;99.90;;;;;;5044507;28;20162;-65
2023/08/27 05:48:49;;;;;;;16.90;11.82;;;13.00;99.90;;;;;;5043928;28;20071;-65
2023/08/27 05:51:15;;;;;;;18.17;12.55;;;13.10;99.90;;;;;;5027762;28;20041;-66
2023/08/27 05:53:42;;;;;;;18.40;11.50;;;13.30;99.90;;;;;;5051207;28;20045;-65
2023/08/27 05:56:07;;;;;;;18.25;11.73;;;13.60;99.90;;;;;;5064143;28;20040;-66
2023/08/27 05:58:33;;;;;;;16.65;10.05;;;13.90;99.90;;;;;;5064133;28;20037;-66
2023/08/27 06:00:58;;;;;;;13.63;9.88;;;14.20;99.90;;;;;;5064127;28;20072;-65
2023/08/27 06:03:25;;;;;;;13.38;8.77;;;14.50;99.90;;;;;;5060935;28;20048;-67
2023/08/27 06:05:50;;;;;;;14.13;9.88;;;14.70;99.90;;;;;;5062407;28;20072;-65
2023/08/27 06:08:16;;;;;;;12.65;9.10;;;15.00;99.90;;;;;;5063695;28;20531;-64
2023/08/27 06:10:41;;;;;;;11.38;8.40;;;15.10;99.90;;;;;;5064088;28;20041;-64
2023/08/27 06:13:07;;;;;;;10.88;7.72;;;15.20;99.90;;;;;;5062340;28;20068;-64
2023/08/27 06:15:34;;;;;;;9.90;7.82;;;15.10;99.90;;;;;;5065314;28;20040;-64
2023/08/27 06:18:03;;;;;;;12.52;8.63;;;15.00;99.90;;;;;;5045587;28;20524;-64
2023/08/27 06:20:29;;;;;;;12.77;8.52;;;14.90;99.90;;;;;;5051540;28;20052;-63
2023/08/27 06:22:55;;;;;;;14.05;8.23;;;14.90;99.90;;;;;;5043777;28;20037;-62
2023/08/27 06:25:23;;;;;;;14.18;8.63;;;14.80;99.90;;;;;;5045286;28;20059;-64
2023/08/27 06:27:54;;;;;;;12.43;8.45;;;14.70;99.90;;;;;;5044645;28;20553;-64
2023/08/27 06:30:19;;;;;;;14.40;9.15;;;14.60;99.90;;;;;;5024190;28;20041;-65
2023/08/27 06:32:45;;;;;;;16.50;8.48;;;14.60;99.90;;;;;;5052233;28;20045;-64
2023/08/27 06:35:11;;;;;;;12.50;8.57;;;14.50;99.90;;;;;;5045615;28;20572;-63
2023/08/27 06:37:36;;;;;;;16.00;9.82;;;14.50;99.90;;;;;;5007218;28;20417;-61
2023/08/27 06:40:02;;;;;;;12.60;8.35;;;14.40;99.90;;;;;;5023655;28;20048;-63
2023/08/27 06:42:28;;;;;;;16.08;9.13;;;14.40;99.90;;;;;;5057080;28;20431;-63
2023/08/27 06:44:53;;;;;;;17.25;9.43;;;14.30;99.90;;;;;;5063484;28;20032;-60
2023/08/27 06:47:19;;;;;;;14.00;9.95;;;14.30;99.90;;;;;;5064725;28;20037;-63
2023/08/27 06:49:46;;;;;;;13.30;9.23;;;14.20;99.90;;;;;;5032565;28;20312;-65
2023/08/27 06:52:11;;;;;;;18.70;10.10;;;14.20;99.90;;;;;;5063237;28;20072;-63
2023/08/27 06:54:37;;;;;;;15.30;9.98;;;14.10;99.90;;;;;;5061763;28;20541;-62
2023/08/27 06:57:03;;;;;;;17.35;11.20;;;14.10;99.90;;;;;;5048578;28;20045;-66
2023/08/27 06:59:29;;;;;;;16.13;9.80;;;14.10;99.90;;;;;;5043245;28;20052;-64
2023/08/27 07:01:55;;;;;;;18.67;9.43;;;14.10;99.90;;;;;;5043124;28;20575;-65
2023/08/27 07:04:21;;;;;;;15.82;10.25;;;14.00;99.90;;;;;;5023575;28;20505;-64
2023/08/27 07:06:46;;;;;;;15.63;8.73;;;14.00;99.90;;;;;;5047478;28;20068;-65
2023/08/27 07:09:12;;;;;;;17.90;9.38;;;14.00;99.90;;;;;;5033665;28;20037;-66
2023/08/27 07:11:38;;;;;;;17.25;9.20;;;14.00;99.90;;;;;;5043814;28;20494;-66
2023/08/27 07:14:06;;;;;;;13.85;8.70;;;14.00;99.90;;;;;;5044685;28;20128;-66
2023/08/27 07:16:33;;;;;;;14.32;8.25;;;14.00;99.90;;;;;;5044844;28;20059;-64
2023/08/27 07:18:59;;;;;;;17.42;9.70;;;14.00;99.90;;;;;;5069278;28;20044;-64
2023/08/27 07:21:25;;;;;;;16.67;7.60;;;14.00;99.90;;;;;;5054473;28;20076;-64
2023/08/27 07:23:51;;;;;;;14.65;8.27;;;14.00;99.90;;;;;;5031205;28;20099;-68
2023/08/27 07:26:17;;;;;;;17.27;8.70;;;14.00;99.90;;;;;;5030679;28;20148;-63
2023/08/27 07:28:43;;;;;;;12.93;8.07;;;14.00;99.90;;;;;;5027005;28;20133;-66
2023/08/27 07:31:09;;;;;;;14.45;7.93;;;13.90;99.90;;;;;;5037647;28;20124;-63
2023/08/27 07:33:34;;;;;;;15.88;7.95;;;14.00;99.90;;;;;;5059703;28;20103;-64
2023/08/27 07:36:00;;;;;;;15.07;8.18;;;14.00;99.90;;;;;;5029639;28;20056;-64
2023/08/27 07:38:26;;;;;;;11.55;7.25;;;14.00;99.90;;;;;;5027074;28;20033;-64
2023/08/27 07:40:52;;;;;;;13.27;7.13;;;14.00;99.90;;;;;;5039135;28;20088;-63
2023/08/27 07:43:19;;;;;;;11.55;7.30;;;14.00;99.90;;;;;;5034333;28;20071;-64
2023/08/27 07:45:45;;;;;;;13.38;6.55;;;14.00;99.90;;;;;;5066947;28;20288;-62
2023/08/27 07:48:10;;;;;;;12.65;6.03;;;14.00;99.90;;;;;;5065146;28;20132;-63
2023/08/27 07:50:37;;;;;;;9.48;5.75;;;13.90;99.90;;;;;;5045007;28;21204;-66
2023/08/27 07:53:03;;;;;;;12.13;6.25;;;14.00;99.90;;;;;;5039331;28;20116;-63
2023/08/27 07:55:31;;;;;;;9.43;5.55;;;13.90;99.90;;;;;;5041728;28;20124;-64
2023/08/27 07:57:58;;;;;;;9.90;5.78;;;14.00;99.90;;;;;;5027873;28;20041;-63
2023/08/27 08:00:23;;;;;;;9.27;4.72;;;14.10;99.90;;;;;;5032674;28;20056;-64
2023/08/27 08:02:49;;;;;;;8.88;4.90;;;14.10;99.90;;;;;;5037732;28;20052;-63
2023/08/27 08:05:15;;;;;;;13.13;5.65;;;14.20;99.90;;;;;;5060600;28;20496;-64
2023/08/27 08:07:42;;;;;;;9.18;5.30;;;14.20;99.90;;;;;;5028977;28;20068;-64
2023/08/27 08:10:08;;;;;;;10.93;5.50;;;14.30;99.90;;;;;;5035315;28;20049;-64
2023/08/27 08:12:34;;;;;;;7.95;4.70;;;14.60;99.90;;;;;;5039846;28;20037;-64
2023/08/27 08:14:59;;;;;;;7.93;4.00;;;14.80;99.90;;;;;;5025974;28;20041;-63
2023/08/27 08:17:25;;;;;;;5.90;2.40;;;15.00;99.90;;;;;;5020588;28;20046;-63
2023/08/27 08:19:52;;;;;;;5.60;2.25;;;15.30;99.90;;;;;;5041234;28;20049;-62
2023/08/27 08:22:17;;;;;;;6.50;2.55;;;15.40;99.90;;;;;;5034233;28;20068;-61
2023/08/27 08:24:43;;;;;;;5.90;2.30;;;15.50;99.90;;;;;;5039081;28;20412;-62
2023/08/27 08:27:08;;;;;;;5.35;2.42;;;15.60;99.90;;;;;;5025553;28;20045;-63
2023/08/27 08:29:34;;;;;;;6.28;2.55;;;15.70;99.90;;;;;;5038989;28;20610;-62
2023/08/27 08:32:00;;;;;;;6.57;2.88;;;15.70;99.90;;;;;;5032089;28;20048;-62
2023/08/27 08:34:29;;;;;;;7.10;3.10;;;15.80;99.90;;;;;;5038040;28;20075;-61
2023/08/27 08:36:55;;;;;;;7.53;2.75;;;15.80;99.90;;;;;;5035178;28;20127;-62
2023/08/27 08:39:20;;;;;;;5.95;3.03;;;15.80;99.90;;;;;;5046908;28;20036;-63
2023/08/27 08:41:54;;;;;;;8.20;3.05;;;15.90;99.90;;;;;;5049422;28;20036;-64
2023/08/27 08:44:54;;;;;;;6.32;3.00;;;16.00;99.90;;;;;;5046604;28;20033;-64
2023/08/27 08:47:21;;;;;;;6.80;2.85;;;16.00;99.90;;;;;;5027481;28;20308;-63
2023/08/27 08:49:53;;;;;;;8.90;3.33;;;16.10;99.90;;;;;;5048583;28;20029;-62
2023/08/27 08:52:24;;;;;;;6.25;3.33;;;16.20;99.90;;;;;;5045274;28;20049;-62
2023/08/27 08:54:53;;;;;;;8.48;3.60;;;16.40;99.90;;;;;;5046674;28;20116;-64
2023/08/27 08:57:19;;;;;;;7.38;3.33;;;16.60;99.90;;;;;;5044700;28;20055;-65
2023/08/27 08:59:47;;;;;;;6.03;3.28;;;16.90;99.90;;;;;;5044773;28;20040;-63
2023/08/27 09:02:14;;;;;;;10.02;3.40;;;17.00;99.90;;;;;;5089758;28;20416;-65
2023/08/27 09:04:41;;;;;;;7.28;3.22;;;17.00;99.90;;;;;;5048570;28;20048;-66
2023/08/27 09:07:07;;;;;;;7.57;3.97;;;17.00;99.90;;;;;;5045052;28;20115;-65
2023/08/27 09:09:33;;;;;;;6.43;3.30;;;17.00;99.90;;;;;;5045173;28;20484;-63
2023/08/27 09:11:59;;;;;;;8.43;4.15;;;17.00;99.90;;;;;;5046300;28;20652;-65
2023/08/27 09:14:25;;;;;;;7.78;2.90;;;16.90;99.90;;;;;;5062597;28;20044;-67
2023/08/27 09:16:51;;;;;;;6.00;2.83;;;16.90;99.90;;;;;;5064927;28;20393;-67
2023/08/27 09:19:17;;;;;;;5.88;3.10;;;16.90;99.90;;;;;;5051850;28;20339;-66
2023/08/27 09:21:43;;;;;;;9.07;3.38;;;16.80;99.90;;;;;;5028249;28;20045;-65
2023/08/27 09:24:09;;;;;;;7.35;3.15;;;16.80;99.90;;;;;;5044852;28;20473;-65
2023/08/27 09:26:34;;;;;;;8.35;3.40;;;16.90;99.90;;;;;;5056101;28;20278;-65
2023/08/27 09:29:01;;;;;;;10.65;3.13;;;17.00;99.90;;;;;;5048577;28;20579;-62
2023/08/27 09:31:40;;;;;;;6.50;2.72;;;17.10;99.90;;;;;;5066148;28;20123;-61
2023/08/27 09:34:07;;;;;;;7.53;2.65;;;17.20;99.90;;;;;;5054138;28;20045;-64
2023/08/27 09:36:35;;;;;;;6.43;2.60;;;17.20;99.90;;;;;;5032047;28;20112;-64
2023/08/27 09:39:09;;;;;;;6.05;2.50;;;17.20;99.90;;;;;;5045368;28;20029;-63
2023/08/27 09:41:43;;;;;;;6.57;2.60;;;17.20;99.90;;;;;;5042817;28;20309;-64
2023/08/27 09:44:10;;;;;;;5.47;2.00;;;17.20;99.90;;;;;;5044460;28;20579;-62
2023/08/27 09:46:36;;;;;;;5.80;2.22;;;17.20;99.90;;;;;;5045330;28;20048;-61
2023/08/27 09:49:05;;;;;;;9.23;2.42;;;17.20;99.90;;;;;;5043784;28;20037;-62
2023/08/27 09:51:40;;;;;;;5.75;1.98;;;17.20;99.90;;;;;;5044082;28;20044;-61
2023/08/27 09:54:17;;;;;;;5.03;1.77;;;17.30;99.90;;;;;;5043547;28;20400;-62
2023/08/27 09:56:46;;;;;;;4.90;2.10;;;17.30;99.90;;;;;;5040624;28;20036;-62
2023/08/27 09:59:15;;;;;;;4.05;1.60;;;17.40;99.90;;;;;;5068339;28;20076;-60
2023/08/27 10:01:45;;;;;;;4.15;1.65;;;17.40;99.90;;;;;;5044805;28;20556;-63
2023/08/27 10:04:10;;;;;;;5.38;1.77;;;17.40;99.90;;;;;;5045040;28;20044;-63
2023/08/27 10:06:37;;;;;;;4.57;2.10;;;17.50;99.90;;;;;;5044242;28;20082;-62
2023/08/27 10:09:03;;;;;;;4.32;1.80;;;17.60;99.90;;;;;;5044815;28;20041;-63
2023/08/27 10:11:29;;;;;;;5.20;2.00;;;17.70;99.90;;;;;;5043251;28;20045;-64
2023/08/27 10:13:57;;;;;;;4.60;1.70;;;17.90;99.90;;;;;;5027094;28;20036;-64
2023/08/27 10:16:23;;;;;;;7.43;1.90;;;18.00;99.90;;;;;;5044381;28;20391;-62
2023/08/27 10:18:49;;;;;;;5.30;1.80;;;18.00;99.90;;;;;;5042462;28;20040;-63
2023/08/27 10:21:16;;;;;;;5.57;1.63;;;18.00;99.90;;;;;;5045019;28;20037;-62
2023/08/27 10:23:42;;;;;;;5.55;1.98;;;18.00;99.90;;;;;;5044509;28;20093;-63
2023/08/27 10:26:09;;;;;;;4.40;1.70;;;18.10;99.90;;;;;;5043647;28;20045;-64
2023/08/27 10:28:35;;;;;;;6.38;1.83;;;18.10;99.90;;;;;;5045041;28;20547;-62
2023/08/27 10:31:03;;;;;;;5.65;1.77;;;18.10;99.90;;;;;;5043761;28;20044;-62
2023/08/27 10:33:29;;;;;;;6.72;1.92;;;18.20;99.90;;;;;;5044082;28;20039;-62
2023/08/27 10:35:59;;;;;;;7.05;2.15;;;18.30;99.90;;;;;;5043414;28;20055;-61
2023/08/27 10:38:27;;;;;;;5.75;2.40;;;18.40;99.90;;;;;;5043563;28;20442;-61
2023/08/27 10:40:53;;;;;;;4.78;2.25;;;18.40;99.90;;;;;;5044924;28;20048;-61
2023/08/27 10:43:19;;;;;;;6.07;2.20;;;18.30;99.90;;;;;;5045082;28;20041;-61
2023/08/27 10:45:47;;;;;;;8.85;2.50;;;18.30;99.90;;;;;;5038385;28;20275;-62
2023/08/27 10:48:25;;;;;;;6.00;2.40;;;18.20;99.90;;;;;;5042589;28;20321;-60
2023/08/27 10:50:55;;;;;;;7.22;3.25;;;18.20;99.90;;;;;;5050416;28;20155;-61
2023/08/27 10:53:21;;;;;;;11.25;3.83;;;18.20;99.90;;;;;;5045108;28;20492;-61
2023/08/27 10:55:50;;;;;;;6.53;2.63;;;18.30;99.90;;;;;;5052099;28;20139;-62
2023/08/27 10:58:21;;;;;;;6.55;2.30;;;18.30;99.90;;;;;;5067977;28;20511;-60
2023/08/27 11:01:11;;;;;;;7.65;2.70;;;18.30;99.90;;;;;;5069028;28;20040;-63
2023/08/27 11:03:59;;;;;;;8.25;2.92;;;18.20;99.90;;;;;;5062675;28;20041;-63
2023/08/27 11:06:45;;;;;;;5.15;1.80;;;18.20;99.90;;;;;;5048454;28;20035;-62
2023/08/27 11:09:23;;;;;;;5.00;2.00;;;18.10;99.90;;;;;;5050533;28;20033;-61
2023/08/27 11:11:56;;;;;;;5.50;1.83;;;18.10;99.90;;;;;;5050106;28;20407;-62
2023/08/27 11:14:23;;;;;;;7.97;2.33;;;18.10;99.90;;;;;;5030863;28;20041;-62
2023/08/27 11:16:58;;;;;;;4.95;2.13;;;18.10;99.90;;;;;;5027597;28;20057;-62
2023/08/27 11:19:31;;;;;;;5.93;2.10;;;18.00;99.90;;;;;;5035465;28;20069;-63
2023/08/27 11:22:23;;;;;;;6.07;2.10;;;18.10;99.90;;;;;;5033784;28;20449;-63
2023/08/27 11:24:49;;;;;;;9.60;2.17;;;18.00;99.90;;;;;;5015040;28;20061;-63
2023/08/27 11:27:17;;;;;;;4.50;1.85;;;18.00;99.90;;;;;;5015625;28;20260;-62
2023/08/27 11:29:46;;;;;;;5.80;2.05;;;18.00;99.90;;;;;;5033415;28;20076;-62
2023/08/27 11:32:12;;;;;;;5.90;2.33;;;17.90;99.90;;;;;;5033576;28;20053;-62
2023/08/27 11:34:42;;;;;;;6.43;2.03;;;17.90;99.90;;;;;;5057398;28;20045;-62
2023/08/27 11:37:09;;;;;;;5.43;2.05;;;17.80;99.90;;;;;;5068155;28;20052;-64
2023/08/27 11:39:36;;;;;;;4.95;2.15;;;17.70;99.90;;;;;;5064349;28;20529;-61
2023/08/27 11:42:09;;;;;;;7.03;2.35;;;17.60;99.90;;;;;;5047844;28;20044;-62
2023/08/27 11:44:34;;;;;;;5.93;2.55;;;17.70;99.90;;;;;;5045782;28;20241;-63
2023/08/27 11:47:05;;;;;;;8.10;2.70;;;17.80;99.90;;;;;;5046945;28;20064;-67
2023/08/27 11:49:32;;;;;;;7.20;2.78;;;18.00;99.90;;;;;;5046760;28;20044;-63
2023/08/27 11:51:59;;;;;;;6.90;1.90;;;18.30;99.90;;;;;;5051273;28;20435;-63
2023/08/27 11:54:30;;;;;;;3.45;1.50;;;18.50;99.90;;;;;;5047579;28;20253;-63
2023/08/27 11:56:57;;;;;;;3.75;1.90;;;18.70;99.90;;;;;;5066079;28;20492;-66
2023/08/27 11:59:25;;;;;;;6.90;2.22;;;18.70;99.90;;;;;;5066370;28;20075;-62
2023/08/27 12:01:51;;;;;;;5.38;2.00;;;18.70;99.90;;;;;;5065234;28;20048;-64
2023/08/27 12:04:16;;;;;;;8.48;2.10;;;18.60;99.90;;;;;;5045744;28;20402;-66
2023/08/27 12:06:59;;;;;;;5.15;1.90;;;18.60;99.90;;;;;;5045881;28;20036;-65
2023/08/27 12:09:27;;;;;;;6.20;2.13;;;18.50;99.90;;;;;;5029562;28;20443;-64
2023/08/27 12:11:53;;;;;;;4.80;1.95;;;18.40;99.90;;;;;;5046223;28;20393;-64
2023/08/27 12:14:24;;;;;;;5.03;2.25;;;18.30;99.90;;;;;;5046474;28;20060;-63
2023/08/27 12:16:51;;;;;;;7.18;2.80;;;18.20;99.90;;;;;;5029781;28;20049;-65
2023/08/27 12:19:20;;;;;;;8.05;3.53;;;18.10;99.90;;;;;;5045820;28;20053;-67
2023/08/27 12:21:53;;;;;;;9.57;3.90;;;18.00;99.90;;;;;;5065884;28;20048;-65
2023/08/27 12:24:29;;;;;;;9.40;4.93;;;17.90;99.90;;;;;;5055171;28;20040;-64
2023/08/27 12:26:58;;;;;;;7.88;3.97;;;17.80;99.90;;;;;;5049631;28;20048;-64
2023/08/27 12:29:27;;;;;;;7.47;4.18;;;17.70;99.90;;;;;;5044852;28;20396;-64
2023/08/27 12:31:53;;;;;;;8.00;3.40;;;17.60;99.90;;;;;;5041636;28;20102;-63
2023/08/27 12:34:19;;;;;;;7.20;3.25;;;17.50;99.90;;;;;;5042976;28;20057;-64
2023/08/27 12:36:44;;;;;;;5.43;2.72;;;17.30;99.90;;;;;;5040918;28;20124;-66